sensor_id;sensor_type;location;lat;lon;timestamp;pressure;altitude;pressure_sealevel;temperature;humidity
79378;BME280;68848;53.128;17.982;2023-03-31T00:00:08;99929.39;;;9.00;85.41
79378;BME280;68848;53.128;17.982;2023-03-31T00:02:57;99926.04;;;8.97;85.56
79378;BME280;68848;53.128;17.982;2023-03-31T00:05:24;99929.20;;;8.96;85.71
79378;BME280;68848;53.128;17.982;2023-03-31T00:07:53;99927.55;;;8.93;85.68
79378;BME280;68848;53.128;17.982;2023-03-31T00:10:20;99924.91;;;8.93;85.62
79378;BME280;68848;53.128;17.982;2023-03-31T00:12:47;99921.98;;;8.92;85.45
79378;BME280;68848;53.128;17.982;2023-03-31T00:15:14;99924.95;;;8.91;85.28
79378;BME280;68848;53.128;17.982;2023-03-31T00:17:41;99922.32;;;8.92;85.89
79378;BME280;68848;53.128;17.982;2023-03-31T00:20:09;99911.45;;;8.93;85.72
79378;BME280;68848;53.128;17.982;2023-03-31T00:22:38;99905.17;;;8.93;85.65
79378;BME280;68848;53.128;17.982;2023-03-31T00:25:08;99905.27;;;8.93;86.09
79378;BME280;68848;53.128;17.982;2023-03-31T00:27:36;99907.86;;;8.94;86.14
79378;BME280;68848;53.128;17.982;2023-03-31T00:30:04;99911.67;;;8.96;86.05
79378;BME280;68848;53.128;17.982;2023-03-31T00:32:33;99912.27;;;8.97;86.26
79378;BME280;68848;53.128;17.982;2023-03-31T00:35:00;99914.96;;;8.99;86.16
79378;BME280;68848;53.128;17.982;2023-03-31T00:37:28;99910.77;;;8.99;86.29
79378;BME280;68848;53.128;17.982;2023-03-31T00:39:55;99911.38;;;9.01;86.09
79378;BME280;68848;53.128;17.982;2023-03-31T00:42:22;99908.00;;;9.02;85.93
79378;BME280;68848;53.128;17.982;2023-03-31T00:47:34;99896.96;;;9.04;86.40
79378;BME280;68848;53.128;17.982;2023-03-31T00:50:01;99901.98;;;9.07;86.23
79378;BME280;68848;53.128;17.982;2023-03-31T00:52:33;99896.83;;;9.10;86.13
79378;BME280;68848;53.128;17.982;2023-03-31T00:55:10;99893.67;;;9.12;86.17
79378;BME280;68848;53.128;17.982;2023-03-31T00:57:40;99887.33;;;9.15;85.73
79378;BME280;68848;53.128;17.982;2023-03-31T01:00:09;99881.46;;;9.17;85.57
79378;BME280;68848;53.128;17.982;2023-03-31T01:02:42;99879.47;;;9.19;85.52
79378;BME280;68848;53.128;17.982;2023-03-31T01:07:58;99867.56;;;9.17;85.38
79378;BME280;68848;53.128;17.982;2023-03-31T01:10:25;99864.53;;;9.15;85.27
79378;BME280;68848;53.128;17.982;2023-03-31T01:12:53;99864.38;;;9.14;85.34
79378;BME280;68848;53.128;17.982;2023-03-31T01:15:21;99862.45;;;9.14;85.27
79378;BME280;68848;53.128;17.982;2023-03-31T01:17:48;99868.02;;;9.15;85.46
79378;BME280;68848;53.128;17.982;2023-03-31T01:29:11;99855.52;;;9.12;85.10
79378;BME280;68848;53.128;17.982;2023-03-31T01:51:21;99851.14;;;8.74;85.92
79378;BME280;68848;53.128;17.982;2023-03-31T01:54:04;99843.89;;;8.69;85.93
79378;BME280;68848;53.128;17.982;2023-03-31T01:56:38;99843.52;;;8.64;85.67
79378;BME280;68848;53.128;17.982;2023-03-31T01:59:10;99841.61;;;8.60;86.29
79378;BME280;68848;53.128;17.982;2023-03-31T02:04:22;99841.59;;;8.50;85.87
79378;BME280;68848;53.128;17.982;2023-03-31T02:06:54;99838.46;;;8.44;86.17
79378;BME280;68848;53.128;17.982;2023-03-31T02:09:26;99841.34;;;8.39;86.44
79378;BME280;68848;53.128;17.982;2023-03-31T02:11:56;99837.70;;;8.34;86.20
79378;BME280;68848;53.128;17.982;2023-03-31T02:14:28;99832.48;;;8.30;86.22
79378;BME280;68848;53.128;17.982;2023-03-31T02:16:57;99833.94;;;8.26;86.22
79378;BME280;68848;53.128;17.982;2023-03-31T02:19:34;99833.41;;;8.22;86.09
79378;BME280;68848;53.128;17.982;2023-03-31T02:22:04;99837.53;;;8.18;86.22
79378;BME280;68848;53.128;17.982;2023-03-31T02:24:32;99838.36;;;8.14;86.36
79378;BME280;68848;53.128;17.982;2023-03-31T02:27:06;99841.73;;;8.11;86.91
79378;BME280;68848;53.128;17.982;2023-03-31T02:29:36;99844.42;;;8.09;86.36
79378;BME280;68848;53.128;17.982;2023-03-31T02:32:12;99838.05;;;8.05;86.14
79378;BME280;68848;53.128;17.982;2023-03-31T02:34:41;99838.31;;;8.03;86.20
79378;BME280;68848;53.128;17.982;2023-03-31T02:37:08;99838.27;;;8.00;86.04
79378;BME280;68848;53.128;17.982;2023-03-31T02:39:36;99836.85;;;7.98;86.20
79378;BME280;68848;53.128;17.982;2023-03-31T02:42:05;99840.10;;;7.95;86.49
79378;BME280;68848;53.128;17.982;2023-03-31T02:44:36;99842.07;;;7.91;86.63
79378;BME280;68848;53.128;17.982;2023-03-31T02:47:05;99843.23;;;7.87;86.20
79378;BME280;68848;53.128;17.982;2023-03-31T02:49:35;99844.61;;;7.83;86.35
79378;BME280;68848;53.128;17.982;2023-03-31T02:57:58;99833.09;;;7.71;86.43
79378;BME280;68848;53.128;17.982;2023-03-31T03:00:59;99830.45;;;7.66;86.77
79378;BME280;68848;53.128;17.982;2023-03-31T03:03:38;99821.65;;;7.62;86.29
79378;BME280;68848;53.128;17.982;2023-03-31T03:06:24;99819.12;;;7.58;86.39
79378;BME280;68848;53.128;17.982;2023-03-31T03:12:24;99818.89;;;7.49;86.89
79378;BME280;68848;53.128;17.982;2023-03-31T03:15:00;99819.06;;;7.45;86.64
79378;BME280;68848;53.128;17.982;2023-03-31T03:17:34;99814.09;;;7.43;86.77
79378;BME280;68848;53.128;17.982;2023-03-31T03:20:04;99812.51;;;7.43;87.11
79378;BME280;68848;53.128;17.982;2023-03-31T03:22:38;99814.05;;;7.46;86.99
79378;BME280;68848;53.128;17.982;2023-03-31T03:25:08;99820.05;;;7.50;87.09
79378;BME280;68848;53.128;17.982;2023-03-31T03:27:36;99818.45;;;7.53;86.83
79378;BME280;68848;53.128;17.982;2023-03-31T03:30:06;99814.55;;;7.55;86.45
79378;BME280;68848;53.128;17.982;2023-03-31T03:32:34;99816.36;;;7.55;86.41
79378;BME280;68848;53.128;17.982;2023-03-31T03:35:03;99815.48;;;7.56;86.25
79378;BME280;68848;53.128;17.982;2023-03-31T03:37:31;99811.92;;;7.57;86.30
79378;BME280;68848;53.128;17.982;2023-03-31T03:39:57;99811.63;;;7.59;85.77
79378;BME280;68848;53.128;17.982;2023-03-31T03:42:24;99811.04;;;7.60;85.76
79378;BME280;68848;53.128;17.982;2023-03-31T03:44:51;99812.25;;;7.61;85.75
79378;BME280;68848;53.128;17.982;2023-03-31T03:47:17;99809.11;;;7.63;85.88
79378;BME280;68848;53.128;17.982;2023-03-31T03:49:44;99809.60;;;7.62;86.08
79378;BME280;68848;53.128;17.982;2023-03-31T03:52:10;99807.89;;;7.61;85.93
79378;BME280;68848;53.128;17.982;2023-03-31T03:54:37;99805.80;;;7.61;86.11
79378;BME280;68848;53.128;17.982;2023-03-31T03:57:04;99815.87;;;7.64;85.93
79378;BME280;68848;53.128;17.982;2023-03-31T03:59:30;99812.69;;;7.66;85.88
79378;BME280;68848;53.128;17.982;2023-03-31T04:01:57;99805.75;;;7.68;85.68
79378;BME280;68848;53.128;17.982;2023-03-31T04:04:24;99796.23;;;7.68;85.67
79378;BME280;68848;53.128;17.982;2023-03-31T04:06:51;99800.09;;;7.67;85.62
79378;BME280;68848;53.128;17.982;2023-03-31T04:09:18;99795.23;;;7.64;85.49
79378;BME280;68848;53.128;17.982;2023-03-31T04:11:44;99791.02;;;7.63;85.61
79378;BME280;68848;53.128;17.982;2023-03-31T04:14:11;99790.23;;;7.63;85.52
79378;BME280;68848;53.128;17.982;2023-03-31T04:16:37;99792.05;;;7.62;85.27
79378;BME280;68848;53.128;17.982;2023-03-31T04:19:05;99792.48;;;7.65;85.09
79378;BME280;68848;53.128;17.982;2023-03-31T04:21:33;99792.23;;;7.67;85.19
79378;BME280;68848;53.128;17.982;2023-03-31T04:24:01;99788.47;;;7.68;85.45
79378;BME280;68848;53.128;17.982;2023-03-31T04:26:32;99785.16;;;7.68;85.09
79378;BME280;68848;53.128;17.982;2023-03-31T04:29:12;99786.11;;;7.69;85.31
79378;BME280;68848;53.128;17.982;2023-03-31T04:31:39;99784.73;;;7.72;85.38
79378;BME280;68848;53.128;17.982;2023-03-31T04:34:11;99782.58;;;7.75;85.14
79378;BME280;68848;53.128;17.982;2023-03-31T04:36:45;99781.87;;;7.78;84.97
79378;BME280;68848;53.128;17.982;2023-03-31T04:39:14;99776.19;;;7.81;84.88
79378;BME280;68848;53.128;17.982;2023-03-31T04:41:42;99777.02;;;7.84;84.85
79378;BME280;68848;53.128;17.982;2023-03-31T04:44:08;99776.80;;;7.86;84.78
79378;BME280;68848;53.128;17.982;2023-03-31T04:46:35;99777.61;;;7.89;84.90
79378;BME280;68848;53.128;17.982;2023-03-31T04:49:02;99777.34;;;7.91;85.19
79378;BME280;68848;53.128;17.982;2023-03-31T04:51:31;99774.81;;;7.94;85.01
79378;BME280;68848;53.128;17.982;2023-03-31T04:53:58;99770.02;;;7.97;84.89
79378;BME280;68848;53.128;17.982;2023-03-31T04:56:25;99770.73;;;8.00;84.85
79378;BME280;68848;53.128;17.982;2023-03-31T04:58:52;99767.02;;;8.03;84.91
79378;BME280;68848;53.128;17.982;2023-03-31T05:01:19;99764.55;;;8.07;84.98
79378;BME280;68848;53.128;17.982;2023-03-31T05:03:46;99765.46;;;8.12;84.79
79378;BME280;68848;53.128;17.982;2023-03-31T05:06:16;99761.07;;;8.13;84.78
79378;BME280;68848;53.128;17.982;2023-03-31T05:08:43;99762.71;;;8.15;84.76
79378;BME280;68848;53.128;17.982;2023-03-31T05:11:10;99760.27;;;8.16;84.78
79378;BME280;68848;53.128;17.982;2023-03-31T05:13:37;99755.52;;;8.21;84.46
79378;BME280;68848;53.128;17.982;2023-03-31T05:16:12;99752.10;;;8.26;84.59
79378;BME280;68848;53.128;17.982;2023-03-31T05:18:40;99747.90;;;8.30;84.51
79378;BME280;68848;53.128;17.982;2023-03-31T05:21:15;99745.56;;;8.32;84.32
79378;BME280;68848;53.128;17.982;2023-03-31T05:23:43;99741.88;;;8.34;84.31
79378;BME280;68848;53.128;17.982;2023-03-31T05:26:12;99745.11;;;8.35;84.31
79378;BME280;68848;53.128;17.982;2023-03-31T05:28:39;99740.20;;;8.34;84.35
79378;BME280;68848;53.128;17.982;2023-03-31T05:31:10;99743.39;;;8.36;84.45
79378;BME280;68848;53.128;17.982;2023-03-31T05:33:38;99747.84;;;8.42;84.26
79378;BME280;68848;53.128;17.982;2023-03-31T05:36:08;99743.19;;;8.50;84.20
79378;BME280;68848;53.128;17.982;2023-03-31T05:38:35;99739.66;;;8.61;84.03
79378;BME280;68848;53.128;17.982;2023-03-31T05:41:02;99736.24;;;8.71;83.78
79378;BME280;68848;53.128;17.982;2023-03-31T05:43:29;99737.50;;;8.82;83.62
79378;BME280;68848;53.128;17.982;2023-03-31T05:45:55;99736.09;;;8.91;83.42
79378;BME280;68848;53.128;17.982;2023-03-31T05:48:22;99731.19;;;8.97;83.35
79378;BME280;68848;53.128;17.982;2023-03-31T05:50:49;99724.36;;;9.03;83.11
79378;BME280;68848;53.128;17.982;2023-03-31T05:53:15;99728.95;;;9.10;83.19
79378;BME280;68848;53.128;17.982;2023-03-31T05:55:42;99732.33;;;9.16;82.83
79378;BME280;68848;53.128;17.982;2023-03-31T05:58:08;99726.67;;;9.19;82.79
79378;BME280;68848;53.128;17.982;2023-03-31T06:00:35;99723.45;;;9.25;82.70
79378;BME280;68848;53.128;17.982;2023-03-31T06:03:03;99717.40;;;9.28;82.55
79378;BME280;68848;53.128;17.982;2023-03-31T06:05:33;99717.48;;;9.32;82.60
79378;BME280;68848;53.128;17.982;2023-03-31T06:08:00;99716.88;;;9.33;82.07
79378;BME280;68848;53.128;17.982;2023-03-31T06:10:27;99716.79;;;9.42;82.16
79378;BME280;68848;53.128;17.982;2023-03-31T06:12:54;99721.17;;;9.52;81.98
79378;BME280;68848;53.128;17.982;2023-03-31T06:15:20;99725.71;;;9.57;81.62
79378;BME280;68848;53.128;17.982;2023-03-31T06:17:47;99722.38;;;9.59;81.83
79378;BME280;68848;53.128;17.982;2023-03-31T06:20:14;99721.35;;;9.64;81.64
79378;BME280;68848;53.128;17.982;2023-03-31T06:22:41;99716.66;;;9.69;81.29
79378;BME280;68848;53.128;17.982;2023-03-31T06:25:08;99714.37;;;9.78;81.24
79378;BME280;68848;53.128;17.982;2023-03-31T06:27:35;99716.36;;;9.89;80.87
79378;BME280;68959;53.132;17.984;2023-03-31T07:38:41;99695.02;;;11.33;75.78
79378;BME280;68959;53.132;17.984;2023-03-31T07:41:13;99697.50;;;11.39;75.11
79378;BME280;68959;53.132;17.984;2023-03-31T07:43:40;99696.66;;;11.54;74.11
79378;BME280;68959;53.132;17.984;2023-03-31T07:46:13;99692.30;;;11.66;74.46
79378;BME280;68959;53.132;17.984;2023-03-31T07:48:40;99691.52;;;11.82;73.84
79378;BME280;68959;53.132;17.984;2023-03-31T07:51:07;99687.21;;;11.93;73.59
79378;BME280;68959;53.132;17.984;2023-03-31T07:53:35;99684.35;;;12.07;73.49
79378;BME280;68959;53.132;17.984;2023-03-31T07:56:02;99680.80;;;12.26;73.21
79378;BME280;68959;53.132;17.984;2023-03-31T07:58:28;99674.91;;;12.41;71.79
79378;BME280;68959;53.132;17.984;2023-03-31T08:00:55;99665.06;;;12.53;71.69
79378;BME280;68959;53.132;17.984;2023-03-31T08:03:22;99662.45;;;12.63;70.99
79378;BME280;68959;53.132;17.984;2023-03-31T08:05:52;99659.42;;;12.86;70.85
79378;BME280;68959;53.132;17.984;2023-03-31T08:08:20;99649.86;;;13.20;69.45
79378;BME280;68959;53.132;17.984;2023-03-31T08:10:47;99640.97;;;13.56;68.89
79378;BME280;68959;53.132;17.984;2023-03-31T08:13:14;99649.63;;;14.03;67.44
79378;BME280;68959;53.132;17.984;2023-03-31T08:15:41;99642.05;;;14.27;66.77
79378;BME280;68959;53.132;17.984;2023-03-31T08:18:08;99641.56;;;14.25;66.32
79378;BME280;68959;53.132;17.984;2023-03-31T08:20:35;99648.60;;;14.20;65.07
79378;BME280;68959;53.132;17.984;2023-03-31T08:23:02;99642.92;;;14.06;65.44
79378;BME280;68959;53.132;17.984;2023-03-31T08:25:30;99634.52;;;14.08;65.67
79378;BME280;68959;53.132;17.984;2023-03-31T08:27:57;99634.20;;;14.16;64.53
79378;BME280;68959;53.132;17.984;2023-03-31T08:30:25;99622.63;;;14.28;65.21
79378;BME280;68959;53.132;17.984;2023-03-31T08:32:51;99614.39;;;14.46;64.81
79378;BME280;68959;53.132;17.984;2023-03-31T08:35:18;99617.89;;;14.62;63.81
79378;BME280;68959;53.132;17.984;2023-03-31T08:37:45;99619.97;;;14.86;63.48
79378;BME280;68959;53.132;17.984;2023-03-31T08:40:19;99626.95;;;14.86;62.43
79378;BME280;68959;53.132;17.984;2023-03-31T08:43:15;99631.98;;;14.78;63.04
79378;BME280;68959;53.132;17.984;2023-03-31T08:45:45;99628.73;;;14.66;62.89
79378;BME280;68959;53.132;17.984;2023-03-31T08:48:32;99629.78;;;14.53;63.40
79378;BME280;68959;53.132;17.984;2023-03-31T08:51:05;99634.92;;;14.36;62.72
79378;BME280;68959;53.132;17.984;2023-03-31T08:53:38;99629.30;;;14.26;63.39
79378;BME280;68959;53.132;17.984;2023-03-31T08:56:14;99631.89;;;14.09;63.56
79378;BME280;68959;53.132;17.984;2023-03-31T08:58:44;99626.86;;;13.94;64.17
79378;BME280;68959;53.132;17.984;2023-03-31T09:01:37;99618.17;;;13.93;63.79
79378;BME280;68959;53.132;17.984;2023-03-31T09:07:09;99624.20;;;14.08;64.01
79378;BME280;68959;53.132;17.984;2023-03-31T09:09:59;99623.00;;;14.11;63.88
79378;BME280;68959;53.132;17.984;2023-03-31T09:18:12;99603.66;;;14.74;61.57
79378;BME280;68959;53.132;17.984;2023-03-31T09:20:45;99605.59;;;15.03;61.29
79378;BME280;68959;53.132;17.984;2023-03-31T09:23:19;99609.10;;;15.40;60.00
79378;BME280;68959;53.132;17.984;2023-03-31T09:25:48;99601.02;;;16.15;57.75
79378;BME280;68959;53.132;17.984;2023-03-31T09:28:20;99602.90;;;16.71;56.99
79378;BME280;68959;53.132;17.984;2023-03-31T09:30:48;99598.39;;;16.99;56.14
79378;BME280;68959;53.132;17.984;2023-03-31T09:33:25;99603.16;;;16.73;55.45
79378;BME280;68959;53.132;17.984;2023-03-31T09:36:00;99596.98;;;16.81;55.44
79378;BME280;68959;53.132;17.984;2023-03-31T09:38:28;99591.06;;;17.03;54.75
79378;BME280;68959;53.132;17.984;2023-03-31T09:40:57;99582.70;;;18.32;52.33
79378;BME280;68959;53.132;17.984;2023-03-31T09:43:27;99575.95;;;19.14;50.48
79378;BME280;68959;53.132;17.984;2023-03-31T09:45:55;99573.61;;;18.66;50.38
79378;BME280;68959;53.132;17.984;2023-03-31T09:48:25;99572.92;;;19.75;48.18
79378;BME280;68959;53.132;17.984;2023-03-31T09:51:01;99577.98;;;19.35;48.01
79378;BME280;68959;53.132;17.984;2023-03-31T09:53:33;99575.98;;;19.82;46.74
79378;BME280;68959;53.132;17.984;2023-03-31T09:56:05;99573.26;;;20.30;44.97
79378;BME280;68959;53.132;17.984;2023-03-31T09:58:42;99566.77;;;21.15;43.44
79378;BME280;68959;53.132;17.984;2023-03-31T10:01:10;99554.02;;;21.37;43.01
79378;BME280;68959;53.132;17.984;2023-03-31T10:03:52;99550.88;;;21.99;42.32
79378;BME280;68959;53.132;17.984;2023-03-31T10:06:21;99540.19;;;21.84;41.22
79378;BME280;68959;53.132;17.984;2023-03-31T10:08:56;99543.49;;;22.31;41.70
79378;BME280;68959;53.132;17.984;2023-03-31T10:11:24;99540.95;;;21.55;42.36
79378;BME280;68959;53.132;17.984;2023-03-31T10:14:00;99547.83;;;20.42;44.73
79378;BME280;68959;53.132;17.984;2023-03-31T10:18:55;99546.48;;;18.68;48.51
79378;BME280;68959;53.132;17.984;2023-03-31T10:21:36;99541.67;;;18.58;48.35
79378;BME280;68959;53.132;17.984;2023-03-31T10:24:10;99541.03;;;18.81;47.39
79378;BME280;68959;53.132;17.984;2023-03-31T10:26:38;99539.54;;;18.95;46.85
79378;BME280;68959;53.132;17.984;2023-03-31T10:29:11;99536.02;;;19.43;45.91
79378;BME280;68959;53.132;17.984;2023-03-31T10:31:39;99531.48;;;18.89;47.10
79378;BME280;68959;53.132;17.984;2023-03-31T10:34:14;99525.75;;;18.30;48.78
79378;BME280;68959;53.132;17.984;2023-03-31T10:36:46;99528.88;;;18.12;49.44
79378;BME280;68959;53.132;17.984;2023-03-31T10:39:15;99525.38;;;17.74;50.44
79378;BME280;68959;53.132;17.984;2023-03-31T10:41:48;99534.88;;;17.41;50.61
79378;BME280;68959;53.132;17.984;2023-03-31T10:44:36;99529.80;;;17.12;51.46
79378;BME280;68959;53.132;17.984;2023-03-31T10:49:37;99523.75;;;17.00;52.10
79378;BME280;68959;53.132;17.984;2023-03-31T10:52:18;99519.67;;;17.03;51.89
79378;BME280;68959;53.132;17.984;2023-03-31T10:54:52;99511.07;;;17.02;51.49
79378;BME280;68959;53.132;17.984;2023-03-31T11:05:55;99509.71;;;18.06;50.12
79378;BME280;68959;53.132;17.984;2023-03-31T11:08:33;99506.08;;;18.27;47.54
79378;BME280;68959;53.132;17.984;2023-03-31T11:13:55;99500.02;;;18.71;46.84
79378;BME280;68959;53.132;17.984;2023-03-31T11:19:44;99480.61;;;19.97;45.19
79378;BME280;68959;53.132;17.984;2023-03-31T11:22:33;99477.30;;;20.84;42.89
79378;BME280;68959;53.132;17.984;2023-03-31T11:25:44;99469.41;;;21.92;39.76
79378;BME280;68959;53.132;17.984;2023-03-31T11:31:49;99469.71;;;21.85;39.64
79378;BME280;68959;53.132;17.984;2023-03-31T11:34:58;99464.33;;;20.90;41.27
79378;BME280;68959;53.132;17.984;2023-03-31T11:37:21;99459.79;;;20.65;41.74
79378;BME280;68959;53.132;17.984;2023-03-31T11:40:11;99452.38;;;20.82;41.63
79378;BME280;68959;53.132;17.984;2023-03-31T11:45:35;99440.38;;;21.94;40.39
79378;BME280;68959;53.132;17.984;2023-03-31T11:48:16;99438.68;;;22.38;38.70
79378;BME280;68959;53.132;17.984;2023-03-31T11:50:45;99428.88;;;22.80;38.35
79378;BME280;68959;53.132;17.984;2023-03-31T11:53:18;99422.93;;;22.02;38.50
79378;BME280;68959;53.132;17.984;2023-03-31T11:55:50;99418.65;;;21.41;39.89
79378;BME280;68959;53.132;17.984;2023-03-31T11:58:44;99415.52;;;21.15;40.03
79378;BME280;68959;53.132;17.984;2023-03-31T12:01:20;99412.61;;;20.81;40.97
79378;BME280;68959;53.132;17.984;2023-03-31T12:03:55;99408.68;;;20.77;41.29
79378;BME280;68959;53.132;17.984;2023-03-31T12:06:28;99405.71;;;21.01;40.46
79378;BME280;68959;53.132;17.984;2023-03-31T12:09:03;99408.25;;;21.39;39.46
79378;BME280;68959;53.132;17.984;2023-03-31T12:11:55;99404.17;;;21.80;39.08
79378;BME280;68959;53.132;17.984;2023-03-31T12:14:38;99393.14;;;21.62;39.24
79378;BME280;68959;53.132;17.984;2023-03-31T12:17:14;99386.95;;;21.20;39.82
79378;BME280;68959;53.132;17.984;2023-03-31T12:19:48;99396.34;;;20.66;39.63
79378;BME280;68959;53.132;17.984;2023-03-31T12:22:28;99388.70;;;19.95;40.31
79378;BME280;68959;53.132;17.984;2023-03-31T12:24:57;99391.52;;;19.24;41.45
79378;BME280;68959;53.132;17.984;2023-03-31T12:30:28;99394.74;;;18.25;43.99
79378;BME280;68959;53.132;17.984;2023-03-31T12:33:06;99399.38;;;17.78;45.03
79378;BME280;68959;53.132;17.984;2023-03-31T12:39:09;99379.61;;;17.53;45.91
79378;BME280;68959;53.132;17.984;2023-03-31T12:42:02;99379.49;;;17.51;46.25
79378;BME280;68959;53.132;17.984;2023-03-31T12:50:48;99378.27;;;17.65;46.16
79378;BME280;68959;53.132;17.984;2023-03-31T12:55:56;99372.73;;;17.74;46.32
79378;BME280;68959;53.132;17.984;2023-03-31T13:01:02;99361.71;;;17.62;46.30
79378;BME280;68959;53.132;17.984;2023-03-31T13:05:59;99354.06;;;17.16;46.67
79378;BME280;68959;53.132;17.984;2023-03-31T13:11:16;99352.09;;;16.84;47.61
79378;BME280;68959;53.132;17.984;2023-03-31T13:14:01;99350.04;;;16.82;48.04
79378;BME280;68959;53.132;17.984;2023-03-31T13:16:30;99347.17;;;16.80;47.92
79378;BME280;68959;53.132;17.984;2023-03-31T13:18:58;99348.30;;;16.62;48.47
79378;BME280;68959;53.132;17.984;2023-03-31T13:21:25;99342.55;;;16.50;48.70
79378;BME280;68959;53.132;17.984;2023-03-31T13:23:53;99335.86;;;16.48;49.13
79378;BME280;68959;53.132;17.984;2023-03-31T13:26:45;99330.33;;;16.47;49.03
79378;BME280;68959;53.132;17.984;2023-03-31T13:34:53;99325.45;;;16.42;50.03
79378;BME280;68959;53.132;17.984;2023-03-31T13:51:34;99284.80;;;18.50;47.10
79378;BME280;68959;53.132;17.984;2023-03-31T13:54:44;99274.62;;;19.65;44.30
79378;BME280;68959;53.132;17.984;2023-03-31T13:57:57;99275.24;;;20.70;41.77
79378;BME280;68959;53.132;17.984;2023-03-31T14:05:49;99248.87;;;22.55;39.15
79378;BME280;68959;53.132;17.984;2023-03-31T14:08:28;99244.45;;;23.74;37.45
79378;BME280;68959;53.132;17.984;2023-03-31T14:13:59;99234.70;;;23.58;35.56
79378;BME280;68959;53.132;17.984;2023-03-31T14:16:27;99235.40;;;23.69;35.05
79378;BME280;68959;53.132;17.984;2023-03-31T14:21:43;99228.11;;;24.87;32.75
79378;BME280;68959;53.132;17.984;2023-03-31T14:24:35;99228.17;;;24.75;33.47
79378;BME280;68959;53.132;17.984;2023-03-31T14:27:29;99226.64;;;23.27;34.83
79378;BME280;68959;53.132;17.984;2023-03-31T14:30:22;99230.17;;;21.70;36.94
79378;BME280;68959;53.132;17.984;2023-03-31T14:36:15;99222.14;;;19.57;40.00
79378;BME280;68959;53.132;17.984;2023-03-31T14:38:46;99218.14;;;18.82;41.65
79378;BME280;68959;53.132;17.984;2023-03-31T14:41:20;99214.41;;;18.22;43.01
79378;BME280;68959;53.132;17.984;2023-03-31T14:43:57;99218.02;;;17.58;44.49
79378;BME280;68959;53.132;17.984;2023-03-31T14:46:29;99221.13;;;17.11;45.43
79378;BME280;68959;53.132;17.984;2023-03-31T14:48:58;99223.06;;;16.75;46.40
79378;BME280;68959;53.132;17.984;2023-03-31T14:51:31;99216.21;;;16.43;47.62
79378;BME280;68959;53.132;17.984;2023-03-31T14:53:59;99214.66;;;16.14;48.43
79378;BME280;68959;53.132;17.984;2023-03-31T14:56:40;99217.73;;;15.86;49.99
79378;BME280;68959;53.132;17.984;2023-03-31T14:59:07;99220.71;;;15.51;51.96
79378;BME280;68959;53.132;17.984;2023-03-31T15:01:35;99217.92;;;15.19;53.36
79378;BME280;68959;53.132;17.984;2023-03-31T15:04:09;99223.91;;;14.91;53.62
79378;BME280;68959;53.132;17.984;2023-03-31T15:06:39;99224.20;;;14.63;55.94
79378;BME280;68959;53.132;17.984;2023-03-31T15:09:14;99223.72;;;14.38;57.09
79378;BME280;68959;53.132;17.984;2023-03-31T15:11:45;99220.00;;;14.17;57.83
79378;BME280;68959;53.132;17.984;2023-03-31T15:14:13;99219.74;;;14.03;58.88
79378;BME280;68959;53.132;17.984;2023-03-31T15:16:42;99223.59;;;13.94;59.56
79378;BME280;68959;53.132;17.984;2023-03-31T15:19:23;99219.66;;;13.85;60.45
79378;BME280;68959;53.132;17.984;2023-03-31T15:21:58;99209.73;;;13.82;61.01
79378;BME280;68959;53.132;17.984;2023-03-31T15:24:28;99206.77;;;13.83;61.52
79378;BME280;68959;53.132;17.984;2023-03-31T15:27:02;99209.33;;;13.84;62.06
79378;BME280;68959;53.132;17.984;2023-03-31T15:29:47;99208.40;;;13.79;61.88
79378;BME280;68959;53.132;17.984;2023-03-31T15:32:26;99206.40;;;13.77;61.86
79378;BME280;68959;53.132;17.984;2023-03-31T15:34:54;99206.11;;;13.74;62.65
79378;BME280;68959;53.132;17.984;2023-03-31T15:37:27;99214.41;;;13.71;62.10
79378;BME280;68959;53.132;17.984;2023-03-31T15:39:59;99209.19;;;13.73;62.07
79378;BME280;68959;53.132;17.984;2023-03-31T15:42:27;99205.64;;;13.83;61.65
79378;BME280;68959;53.132;17.984;2023-03-31T15:47:51;99200.69;;;13.89;62.22
79378;BME280;68959;53.132;17.984;2023-03-31T15:50:22;99198.06;;;13.91;61.67
79378;BME280;68959;53.132;17.984;2023-03-31T15:52:52;99196.38;;;13.98;62.35
79378;BME280;68959;53.132;17.984;2023-03-31T15:57:50;99192.69;;;14.09;62.01
79378;BME280;68959;53.132;17.984;2023-03-31T16:03:25;99188.73;;;14.23;62.40
79378;BME280;68959;53.132;17.984;2023-03-31T16:05:58;99186.50;;;14.21;61.65
79378;BME280;68959;53.132;17.984;2023-03-31T16:08:37;99188.70;;;14.18;61.80
79378;BME280;68959;53.132;17.984;2023-03-31T16:11:11;99186.88;;;14.09;62.33
79378;BME280;68959;53.132;17.984;2023-03-31T16:13:42;99187.04;;;13.96;62.23
79378;BME280;68959;53.132;17.984;2023-03-31T16:16:12;99187.46;;;13.79;63.21
79378;BME280;68959;53.132;17.984;2023-03-31T16:18:47;99184.50;;;13.64;63.29
79378;BME280;68959;53.132;17.984;2023-03-31T16:21:22;99184.95;;;13.52;63.89
79378;BME280;68959;53.132;17.984;2023-03-31T16:23:53;99190.02;;;13.42;64.23
79378;BME280;68959;53.132;17.984;2023-03-31T16:26:22;99188.64;;;13.35;64.18
79378;BME280;68959;53.132;17.984;2023-03-31T16:28:51;99190.31;;;13.30;64.53
79378;BME280;68959;53.132;17.984;2023-03-31T16:31:31;99184.98;;;13.23;64.21
79378;BME280;68959;53.132;17.984;2023-03-31T16:34:03;99185.92;;;13.16;65.00
79378;BME280;68959;53.132;17.984;2023-03-31T16:36:31;99181.98;;;13.06;64.59
79378;BME280;68959;53.132;17.984;2023-03-31T16:38:58;99184.14;;;13.03;64.51
79378;BME280;68959;53.132;17.984;2023-03-31T16:41:29;99181.81;;;12.99;64.72
79378;BME280;68959;53.132;17.984;2023-03-31T16:43:56;99175.77;;;12.95;64.50
79378;BME280;68959;53.132;17.984;2023-03-31T16:46:23;99177.43;;;12.94;64.57
79378;BME280;68959;53.132;17.984;2023-03-31T16:48:51;99176.45;;;12.91;64.49
79378;BME280;68959;53.132;17.984;2023-03-31T16:51:18;99171.52;;;12.89;64.03
79378;BME280;68959;53.132;17.984;2023-03-31T16:53:46;99174.65;;;12.87;64.36